createdAt,value
2022-10-18T00:01:27.648Z,28.40
2022-10-18T00:03:56.204Z,24.58
2022-10-18T00:06:27.131Z,19.75
2022-10-18T00:08:55.657Z,20.70
2022-10-18T00:11:24.624Z,26.02
2022-10-18T00:13:58.116Z,23.42
2022-10-18T00:16:27.191Z,25.92
2022-10-18T00:18:56.031Z,21.05
2022-10-18T00:21:27.208Z,25.90
2022-10-18T00:23:55.829Z,24.80
2022-10-18T00:26:28.842Z,22.92
2022-10-18T00:29:02.643Z,25.77
2022-10-18T00:31:34.300Z,21.85
2022-10-18T00:34:06.223Z,27.85
2022-10-18T00:36:36.090Z,27.10
2022-10-18T00:39:07.336Z,25.38
2022-10-18T00:41:39.311Z,26.50
2022-10-18T00:44:47.567Z,25.02
2022-10-18T00:47:18.608Z,22.88
2022-10-18T00:49:53.743Z,24.95
2022-10-18T00:52:28.464Z,29.70
2022-10-18T00:54:59.342Z,24.95
2022-10-18T00:57:29.842Z,24.55
2022-10-18T01:00:00.520Z,23.63
2022-10-18T01:02:30.752Z,25.50
2022-10-18T01:05:01.096Z,22.55
2022-10-18T01:07:50.805Z,25.25
2022-10-18T01:10:29.139Z,27.27
2022-10-18T01:13:16.892Z,24.58
2022-10-18T01:15:58.213Z,30.60
2022-10-18T01:18:34.465Z,25.90
2022-10-18T01:21:15.481Z,26.48
2022-10-18T01:24:24.024Z,24.52
2022-10-18T01:27:14.967Z,25.10
2022-10-18T01:29:55.271Z,22.60
2022-10-18T01:32:29.583Z,26.27
2022-10-18T01:35:04.885Z,29.33
2022-10-18T01:37:35.006Z,26.48
2022-10-18T01:40:08.384Z,25.17
2022-10-18T01:42:36.884Z,26.45
2022-10-18T01:45:10.379Z,27.00
2022-10-18T01:47:42.225Z,27.45
2022-10-18T01:50:11.945Z,27.55
2022-10-18T01:52:50.448Z,27.33
2022-10-18T01:55:21.187Z,29.30
2022-10-18T01:58:01.313Z,24.60
2022-10-18T02:00:37.905Z,25.30
2022-10-18T02:03:19.129Z,26.80
2022-10-18T02:05:53.476Z,23.45
2022-10-18T02:08:36.477Z,27.50
2022-10-18T02:11:07.768Z,25.27
2022-10-18T02:13:41.174Z,24.98
2022-10-18T02:16:15.110Z,23.88
2022-10-18T02:18:51.992Z,26.95
2022-10-18T02:21:22.612Z,23.75
2022-10-18T02:23:53.862Z,24.10
2022-10-18T02:26:22.709Z,22.02
2022-10-18T02:28:51.400Z,22.10
2022-10-18T02:31:24.388Z,24.70
2022-10-18T02:34:00.182Z,20.05
2022-10-18T02:36:35.169Z,21.95
2022-10-18T02:39:15.462Z,22.02
2022-10-18T02:41:45.145Z,21.55
2022-10-18T02:44:13.621Z,20.05
2022-10-18T02:46:44.286Z,19.65
2022-10-18T02:49:15.193Z,18.02
2022-10-18T02:52:09.510Z,18.98
2022-10-18T02:54:39.108Z,18.23
2022-10-18T02:57:16.497Z,23.85
2022-10-18T02:59:44.962Z,19.23
2022-10-18T03:02:19.303Z,21.55
2022-10-18T03:04:50.887Z,19.33
2022-10-18T03:07:19.806Z,21.88
2022-10-18T03:09:50.376Z,20.05
2022-10-18T03:12:19.290Z,16.52
2022-10-18T03:14:56.031Z,21.02
2022-10-18T03:17:25.639Z,15.27
2022-10-18T03:19:56.205Z,17.30
2022-10-18T03:22:25.507Z,18.35
2022-10-18T03:24:55.739Z,18.30
2022-10-18T03:27:26.489Z,18.80
2022-10-18T03:30:01.863Z,16.73
2022-10-18T03:32:30.594Z,18.63
2022-10-18T03:35:01.724Z,17.17
2022-10-18T03:37:32.418Z,14.50
2022-10-18T03:40:04.056Z,15.25
2022-10-18T03:42:42.675Z,13.95
2022-10-18T03:45:11.662Z,14.85
2022-10-18T03:47:41.975Z,17.20
2022-10-18T03:50:13.158Z,14.55
2022-10-18T03:52:41.604Z,17.52
2022-10-18T03:55:11.439Z,13.48
2022-10-18T03:57:40.008Z,14.27
2022-10-18T04:00:09.999Z,20.80
2022-10-18T04:02:41.336Z,19.38
2022-10-18T04:05:27.004Z,15.52
2022-10-18T04:07:55.737Z,15.77
2022-10-18T04:10:30.793Z,17.80
2022-10-18T04:12:59.595Z,19.52
2022-10-18T04:15:28.735Z,19.05
2022-10-18T04:17:57.240Z,17.40
2022-10-18T04:20:30.298Z,19.02
2022-10-18T04:22:58.974Z,15.10
2022-10-18T04:25:28.890Z,17.30
2022-10-18T04:27:57.824Z,15.98
2022-10-18T04:30:27.434Z,15.75
2022-10-18T04:32:57.331Z,17.45
2022-10-18T04:35:26.502Z,13.18
2022-10-18T04:37:58.016Z,11.32
2022-10-18T04:40:26.587Z,15.60
2022-10-18T04:42:56.412Z,17.27
2022-10-18T04:45:26.068Z,12.50
2022-10-18T04:47:54.822Z,15.57
2022-10-18T04:50:24.924Z,16.88
2022-10-18T04:52:54.103Z,17.40
2022-10-18T04:55:24.030Z,14.65
2022-10-18T04:57:54.703Z,13.63
2022-10-18T05:00:24.874Z,15.82
2022-10-18T05:02:58.130Z,14.57
2022-10-18T05:05:43.225Z,16.23
2022-10-18T05:08:16.245Z,15.25
2022-10-18T05:10:46.391Z,13.98
2022-10-18T05:13:16.902Z,14.63
2022-10-18T05:15:47.453Z,11.93
2022-10-18T05:18:38.701Z,14.02
2022-10-18T05:21:07.443Z,16.23
2022-10-18T05:23:37.108Z,15.13
2022-10-18T05:26:08.940Z,13.50
2022-10-18T05:28:40.066Z,15.32
2022-10-18T05:31:11.497Z,16.50
2022-10-18T05:33:40.981Z,15.60
2022-10-18T05:36:10.095Z,17.38
2022-10-18T05:38:42.409Z,13.02
2022-10-18T05:41:17.042Z,16.02
2022-10-18T05:43:45.622Z,16.70
2022-10-18T05:46:15.711Z,15.68
2022-10-18T05:48:45.653Z,17.20
2022-10-18T05:51:14.505Z,16.17
2022-10-18T05:53:44.570Z,17.95
2022-10-18T05:56:14.629Z,13.65
2022-10-18T05:58:49.008Z,17.80
2022-10-18T06:01:19.929Z,17.70
2022-10-18T06:03:52.314Z,14.60
2022-10-18T06:06:22.724Z,16.80
2022-10-18T06:08:52.097Z,14.77
2022-10-18T06:11:23.342Z,15.15
2022-10-18T06:13:55.054Z,18.60
2022-10-18T06:16:27.308Z,16.77
2022-10-18T06:19:02.478Z,16.63
2022-10-18T06:21:35.114Z,16.15
2022-10-18T06:24:04.847Z,14.50
2022-10-18T06:26:34.825Z,19.38
2022-10-18T06:29:06.042Z,13.80
2022-10-18T06:31:52.268Z,16.02
2022-10-18T06:34:28.944Z,16.42
2022-10-18T06:37:00.456Z,16.35
2022-10-18T06:39:37.211Z,14.25
2022-10-18T06:42:13.834Z,18.33
2022-10-18T06:44:44.703Z,15.57
2022-10-18T06:47:13.870Z,16.70
2022-10-18T06:49:48.246Z,13.98
2022-10-18T06:52:20.885Z,19.02
2022-10-18T06:54:49.576Z,17.13
2022-10-18T06:57:21.864Z,17.95
2022-10-18T06:59:54.621Z,23.08
2022-10-18T07:02:24.189Z,25.58
2022-10-18T07:04:55.270Z,16.58
2022-10-18T07:07:23.559Z,19.88
2022-10-18T07:09:51.898Z,19.23
2022-10-18T07:12:24.031Z,21.08
2022-10-18T07:14:55.228Z,20.85
2022-10-18T07:17:25.106Z,13.20
2022-10-18T07:19:54.607Z,21.90
2022-10-18T07:22:27.013Z,12.00
2022-10-18T07:24:59.163Z,16.02
2022-10-18T07:27:31.014Z,11.05
2022-10-18T07:30:07.362Z,18.98
2022-10-18T07:32:36.074Z,23.08
2022-10-18T07:35:05.437Z,18.38
2022-10-18T07:37:36.390Z,20.83
2022-10-18T07:40:05.873Z,19.10
2022-10-18T07:42:37.186Z,20.30
2022-10-18T07:45:06.625Z,21.52
2022-10-18T07:47:35.426Z,26.42
2022-10-18T07:50:04.163Z,16.02
2022-10-18T07:52:33.012Z,25.30
2022-10-18T07:55:01.596Z,24.02
2022-10-18T07:57:30.328Z,22.08
2022-10-18T08:00:00.706Z,21.10
2022-10-18T08:02:29.579Z,24.38
2022-10-18T08:04:59.551Z,14.65
2022-10-18T08:07:28.702Z,17.08
2022-10-18T08:09:57.269Z,12.40
2022-10-18T08:12:26.315Z,16.95
2022-10-18T08:18:36.919Z,17.75
2022-10-18T12:48:54.917Z,19.77
2022-10-18T12:51:26.227Z,21.65
2022-10-18T12:54:20.988Z,18.73
2022-10-18T12:57:10.782Z,20.02
2022-10-18T12:59:46.009Z,19.02
2022-10-18T13:03:10.468Z,18.33
2022-10-18T13:06:14.005Z,17.67
2022-10-18T13:08:48.757Z,20.90
2022-10-18T13:11:36.326Z,17.92
2022-10-18T13:14:35.807Z,18.92
2022-10-18T13:17:54.941Z,20.08
2022-10-18T13:21:17.098Z,23.05
2022-10-18T13:24:07.598Z,16.95
2022-10-18T13:30:50.530Z,22.88
2022-10-18T13:34:01.042Z,23.83
2022-10-18T13:37:22.240Z,24.35
2022-10-18T13:40:53.793Z,23.30
2022-10-18T13:45:06.866Z,18.52
2022-10-18T13:48:24.884Z,20.63
2022-10-18T13:55:11.194Z,18.45
2022-10-18T13:59:13.164Z,20.70
2022-10-18T14:02:50.938Z,18.58
2022-10-18T14:06:41.100Z,17.83
2022-10-18T14:09:45.558Z,16.08
2022-10-18T14:19:58.016Z,14.48
2022-10-18T14:23:33.336Z,14.40
2022-10-18T14:33:27.368Z,13.90
2022-10-18T14:36:11.546Z,13.48
2022-10-18T14:38:52.167Z,12.98
2022-10-18T14:41:24.414Z,10.65
2022-10-18T14:43:54.775Z,9.38
2022-10-18T14:46:29.118Z,13.57
2022-10-18T14:49:03.200Z,12.43
2022-10-18T14:51:36.792Z,10.20
2022-10-18T14:54:07.524Z,11.45
2022-10-18T14:56:40.304Z,15.95
2022-10-18T14:59:17.774Z,18.45
2022-10-18T15:02:01.808Z,16.50
2022-10-18T15:04:33.325Z,13.02
2022-10-18T15:07:05.036Z,17.85
2022-10-18T15:09:36.677Z,16.50
2022-10-18T15:12:08.684Z,18.83
2022-10-18T15:14:38.300Z,13.57
2022-10-18T15:17:15.593Z,10.65
2022-10-18T15:19:59.336Z,16.85
2022-10-18T15:22:33.157Z,17.40
2022-10-18T15:25:16.561Z,15.63
2022-10-18T15:27:48.761Z,14.63
2022-10-18T15:30:21.515Z,16.83
2022-10-18T15:32:52.823Z,15.88
2022-10-18T15:35:27.777Z,15.95
2022-10-18T15:37:58.721Z,10.88
2022-10-18T15:40:43.490Z,15.13
2022-10-18T15:43:40.969Z,12.40
2022-10-18T15:46:33.351Z,13.75
2022-10-18T15:49:43.205Z,13.52
2022-10-18T15:52:38.546Z,14.45
2022-10-18T15:55:48.582Z,11.40
2022-10-18T15:58:24.026Z,7.57
2022-10-18T16:00:54.511Z,13.20
2022-10-18T16:03:24.830Z,7.38
2022-10-18T16:05:57.576Z,12.95
2022-10-18T16:08:31.178Z,13.85
2022-10-18T16:11:01.724Z,10.18
2022-10-18T16:13:30.206Z,13.15
2022-10-18T16:15:59.680Z,13.35
2022-10-18T16:18:30.173Z,19.70
2022-10-18T16:20:58.880Z,15.02
2022-10-18T16:23:29.765Z,18.17
2022-10-18T16:25:58.875Z,21.15
2022-10-18T16:28:32.536Z,14.07
2022-10-18T16:31:04.606Z,21.15
2022-10-18T16:33:33.299Z,17.15
2022-10-18T16:36:04.972Z,17.50
2022-10-18T16:38:36.660Z,17.00
2022-10-18T16:41:06.986Z,19.05
2022-10-18T16:43:37.262Z,21.98
2022-10-18T16:46:07.779Z,15.25
2022-10-18T16:48:39.716Z,14.75
2022-10-18T16:51:08.793Z,18.23
2022-10-18T16:53:45.115Z,19.98
2022-10-18T16:56:18.629Z,23.30
2022-10-18T16:58:47.742Z,21.60
2022-10-18T17:01:33.899Z,25.52
2022-10-18T17:04:24.529Z,16.10
2022-10-18T17:06:55.679Z,19.20
2022-10-18T17:09:36.002Z,19.25
2022-10-18T17:12:13.723Z,22.70
2022-10-18T17:14:59.896Z,28.45
2022-10-18T17:18:18.102Z,21.10
2022-10-18T17:20:57.522Z,22.88
2022-10-18T17:24:08.683Z,18.20
2022-10-18T17:27:20.202Z,26.40
2022-10-18T17:29:56.120Z,24.50
2022-10-18T17:32:27.542Z,20.55
2022-10-18T17:35:17.412Z,22.70
2022-10-18T17:37:53.924Z,24.17
2022-10-18T17:40:24.322Z,28.33
2022-10-18T17:43:13.990Z,23.52
2022-10-18T17:45:49.485Z,22.83
2022-10-18T17:48:18.055Z,26.23
2022-10-18T17:50:46.727Z,21.80
2022-10-18T17:53:22.567Z,27.55
2022-10-18T17:55:51.108Z,24.88
2022-10-18T17:58:29.488Z,19.98
2022-10-18T18:00:59.864Z,24.25
2022-10-18T18:03:34.318Z,28.00
2022-10-18T18:06:20.499Z,25.77
2022-10-18T18:08:51.871Z,38.28
2022-10-18T18:11:27.186Z,33.13
2022-10-18T18:13:59.628Z,35.85
2022-10-18T19:38:00.103Z,30.20
2022-10-18T19:58:53.207Z,30.60
2022-10-18T20:06:40.068Z,29.17
2022-10-18T20:09:13.440Z,28.55
2022-10-18T20:11:45.066Z,29.73
2022-10-18T20:14:15.432Z,22.85
2022-10-18T20:16:44.773Z,23.42
2022-10-18T20:19:13.258Z,21.73
2022-10-18T20:21:42.254Z,30.20
2022-10-18T20:24:13.058Z,24.60
2022-10-18T20:26:43.681Z,26.48
2022-10-18T20:29:15.278Z,35.00
2022-10-18T20:31:44.358Z,25.25
2022-10-18T20:34:14.028Z,22.60
2022-10-18T20:36:43.184Z,30.75
2022-10-18T20:39:11.611Z,22.38
2022-10-18T20:41:42.959Z,27.45
2022-10-18T20:44:17.109Z,27.17
2022-10-18T20:46:47.196Z,25.23
2022-10-18T20:49:18.026Z,20.63
2022-10-18T20:51:46.829Z,23.48
2022-10-18T20:54:15.346Z,29.70
2022-10-18T20:56:45.582Z,22.77
2022-10-18T20:59:17.829Z,24.85
2022-10-18T21:01:47.849Z,18.45
2022-10-18T21:04:18.329Z,22.85
2022-10-18T21:06:47.085Z,20.10
2022-10-18T21:09:17.769Z,18.05
2022-10-18T21:11:51.587Z,22.90
2022-10-18T21:14:23.481Z,23.02
2022-10-18T21:16:54.151Z,20.08
2022-10-18T21:19:24.260Z,21.30
2022-10-18T21:21:55.736Z,20.58
2022-10-18T21:24:25.908Z,25.42
2022-10-18T21:26:54.929Z,41.50
2022-10-18T21:29:27.247Z,24.52
2022-10-18T21:31:58.499Z,20.42
2022-10-18T21:34:27.499Z,21.35
2022-10-18T21:36:56.268Z,19.33
2022-10-18T21:39:25.875Z,24.52
2022-10-18T21:41:55.029Z,22.45
2022-10-18T21:44:26.806Z,23.30
2022-10-18T21:46:55.338Z,15.50
2022-10-18T21:49:25.504Z,32.17
2022-10-18T21:51:53.822Z,18.23
2022-10-18T21:54:22.382Z,15.57
2022-10-18T21:56:51.433Z,20.13
2022-10-18T21:59:20.180Z,20.92
2022-10-18T22:01:50.748Z,17.63
2022-10-18T22:04:21.562Z,21.85
2022-10-18T22:07:14.966Z,18.38
2022-10-18T22:09:43.486Z,27.73
2022-10-18T22:12:11.996Z,20.23
2022-10-18T22:14:42.295Z,15.70
2022-10-18T22:17:12.234Z,18.55
2022-10-18T22:19:40.847Z,22.95
2022-10-18T22:22:09.585Z,18.40
2022-10-18T22:24:39.557Z,19.65
2022-10-18T22:27:09.294Z,20.52
2022-10-18T22:29:37.670Z,25.15
2022-10-18T22:32:06.462Z,23.70
2022-10-18T22:34:40.083Z,21.75
2022-10-18T22:37:08.601Z,26.25
2022-10-18T22:39:38.306Z,22.75
2022-10-18T22:42:07.143Z,24.23
2022-10-18T22:44:36.126Z,24.75
2022-10-18T22:47:05.410Z,23.80
2022-10-18T22:49:34.005Z,22.55
2022-10-18T22:52:09.745Z,24.73
2022-10-18T22:54:39.557Z,25.50
2022-10-18T22:57:08.423Z,30.83
2022-10-18T22:59:40.970Z,21.90
2022-10-18T23:02:10.905Z,23.80
2022-10-18T23:04:39.563Z,20.45
2022-10-18T23:07:09.347Z,19.08
2022-10-18T23:12:07.681Z,22.15
2022-10-18T23:14:38.991Z,22.55
2022-10-18T23:17:10.676Z,20.80
2022-10-18T23:19:42.022Z,20.13
2022-10-18T23:22:15.180Z,18.70
2022-10-18T23:24:44.739Z,18.88
2022-10-18T23:27:15.394Z,23.80
2022-10-18T23:29:44.089Z,24.10
2022-10-18T23:32:12.743Z,17.33
2022-10-18T23:34:41.873Z,19.55
2022-10-18T23:37:19.349Z,12.35
2022-10-18T23:39:53.865Z,19.88
2022-10-18T23:42:23.542Z,16.30
2022-10-18T23:44:54.448Z,16.13
2022-10-18T23:47:29.194Z,18.67
2022-10-18T23:49:59.635Z,21.25
2022-10-18T23:52:30.104Z,23.35
2022-10-18T23:54:58.791Z,15.52
2022-10-18T23:57:27.165Z,19.45
2022-10-18T23:59:55.737Z,20.10
